Royal City, WA

9:40 PM PDT on April 01, 2015 (GMT -0700)
Grant County International | | Change Station
CLOSE
Current Station
Airport
Location: Moses Lake,
Elevation: 1184 ft
Nearby Weather Stations
Active Advisory: Freeze Warning Active Notice: Record Report

Elev 1184 ft 47.21 °N, 119.32 °W | Updated 48 minutes ago

Partly Cloudy
Partly Cloudy
47 °F
Feels Like 47 °F
N
10
Wind Variable Wind from WNW

Today
High -- | Low -- °F
--% Chance of Precip.
Yesterday
High -- | Low -- °F
Precip. -- in
6:37 AM 7:27 PM
Waxing Gibbous, 95% visible
Pressure 30.14 in
Visibility 10.0 miles
Clouds Clear
Dew Point 23 °F
Humidity 39%
Rainfall 0.00 in
Snow Depth Not available.
UV 0 out of 12
Pollen 10.20 out of 12
Air Quality Not available.
Flu Activity Not available.
METAR KMWH 020352Z 29009KT 10SM CLR 08/M05 A3013 RMK AO2 SLP206 T00831050

More Conditions Fewer Conditions

Pressure 30.14 in
Visibility 10.0 miles
Clouds Clear
Dew Point 23 °F
Humidity 39%
Rainfall 0.00 in
Snow Depth Not available.
UV 0 out of 12
Pollen 10.20 out of 12
Air Quality Not available.
Flu Activity Not available.
METAR KMWH 020352Z 29009KT 10SM CLR 08/M05 A3013 RMK AO2 SLP206 T00831050

More Conditions Fewer Conditions

10-Day Weather Forecast

Almanac

Astronomy

Apr. 01, 2015 Rise Set
Actual Time
Civil Twilight
Nautical Twilight
Astronomical Twilight
Moon
Length of Visible Light
Length of Day
Tomorrow will be .
, % of the Moon is Illuminated

Today's Extremes

State Highs State Lows

Community

WunderPhotos

Upload Photos

1,810,198 photos uploaded!

WunderBlogs® & News

Nearby

Air Quality

  Air Quality AQ Index Pollutant
Not available.

Snow Depth

Station Depth Elevation

Earthquake Activity

City Distance Mag. Time & Date
Minimum magnitude displayed is 2.5.

Coastal Water Temperatures

Place Temperature

Stations

Nearby Weather Stations

Station Location Temp. Windchill Dew Point Humidity Wind Precip. Elev Updated Type
                   
Freeze Warning
Statement as of 11:56 AM PDT on April 01, 2015

... Freeze warning now in effect from 2 am to 9 am PDT Thursday...

* temperatures... 28 to 34.

* Impacts... cold sensitive plants could be damaged by freezing
temperatures. Temperatures could be below freezing up to 5
hours.

Precautionary/preparedness actions...

A freeze warning is issued whenever freezing temperatures are
expected during the growing season.